ěÝzenÝ letovÚho provozu ╚eskÚ republiky
Letiste: LKNA Aktualizace: 01.12.2023 22:59:38  UTC
 METAR LKNA 01.12. 23:00 ...
METAR LKNA 012300Z 36006KT 1300 R30/1000D -SN BR BKN005 OVC015 M01/M01 Q1000 RMK AMB=
 TAF LKNA 01.12. 17:00 ...
TAF LKNA 011700Z 0118/0218 04006KT 1200 SN BR BKN003 OVC010      TEMPO 0118/0218 01008KT 0400 SN FZFG VV002      BECMG 0210/0212 35015KT=
 WARNING LKNA 01.12. 22:14 ...
LKNA AD WRNG 4 VALID 012230/020430 SN 5CM OBS AND FCST NC=